Time;durP1;ratioP1;P1;durP2;ratioP2;P2;SDS_P1;SDS_P2;PMS_P1;PMS_P2;Temp;Humidity;BMP_temperature;BMP_pressure;BME280_temperature;BME280_humidity;BME280_pressure;Samples;Min_cycle;Max_cycle;Signal;HPM_P1;HPM_P2
2022/09/08 00:00:09;;;;;;;4.23;1.77;;;19.00;99.90;;;;;;5076971;28;20620;-79
2022/09/08 00:02:36;;;;;;;4.07;2.20;;;18.90;99.90;;;;;;5073914;28;20618;-80
2022/09/08 00:05:04;;;;;;;1.70;1.60;;;19.00;99.90;;;;;;5074799;28;20674;-80
2022/09/08 00:07:32;;;;;;;2.10;1.73;;;19.00;99.90;;;;;;5086167;28;20631;-80
2022/09/08 00:10:00;;;;;;;1.80;1.70;;;18.90;99.90;;;;;;5082530;28;20653;-79
2022/09/08 00:12:29;;;;;;;2.47;2.27;;;18.80;99.90;;;;;;5080546;28;20727;-79
2022/09/08 00:14:56;;;;;;;2.20;1.97;;;18.80;99.90;;;;;;5086497;28;20635;-78
2022/09/08 00:17:24;;;;;;;1.67;1.57;;;18.90;99.90;;;;;;5086456;28;20625;-81
2022/09/08 00:19:50;;;;;;;1.77;1.67;;;19.00;99.90;;;;;;5088365;28;20627;-81
2022/09/08 00:22:17;;;;;;;2.37;1.50;;;19.00;99.90;;;;;;5075755;28;20724;-82
2022/09/08 00:24:44;;;;;;;2.57;1.73;;;19.00;99.90;;;;;;5077148;28;20627;-81
2022/09/08 00:27:12;;;;;;;2.20;1.97;;;19.00;99.90;;;;;;5070839;28;21094;-80
2022/09/08 00:29:39;;;;;;;2.77;2.53;;;19.00;99.90;;;;;;5085876;28;20656;-80
2022/09/08 00:32:06;;;;;;;2.37;1.73;;;18.90;99.90;;;;;;5075449;28;20637;-81
2022/09/08 00:34:34;;;;;;;3.93;2.20;;;18.80;99.90;;;;;;5069643;28;20754;-82
2022/09/08 00:37:01;;;;;;;1.43;1.30;;;18.70;99.90;;;;;;5067538;28;20625;-81
2022/09/08 00:39:27;;;;;;;2.20;2.10;;;18.60;99.90;;;;;;5069224;28;20646;-81
2022/09/08 00:41:55;;;;;;;2.37;2.20;;;18.60;99.90;;;;;;5067337;28;20753;-79
2022/09/08 00:44:47;;;;;;;1.97;1.67;;;18.60;99.90;;;;;;5065629;28;20625;-81
2022/09/08 00:47:20;;;;;;;1.80;1.70;;;18.60;99.90;;;;;;5047570;28;20716;-81
2022/09/08 00:49:51;;;;;;;2.03;1.60;;;18.50;99.90;;;;;;5069960;28;21447;-78
2022/09/08 00:52:18;;;;;;;2.63;1.47;;;18.40;99.90;;;;;;5081716;28;20629;-80
2022/09/08 00:54:46;;;;;;;2.20;2.00;;;18.30;99.90;;;;;;5080902;28;20626;-78
2022/09/08 00:57:13;;;;;;;2.03;1.93;;;18.40;99.90;;;;;;5066933;28;20617;-80
2022/09/08 00:59:42;;;;;;;1.90;1.80;;;18.50;99.90;;;;;;5074870;28;20720;-80
2022/09/08 01:02:23;;;;;;;3.43;2.10;;;18.50;99.90;;;;;;5074999;28;20628;-79
2022/09/08 01:04:52;;;;;;;2.33;1.97;;;18.50;99.90;;;;;;5084463;28;21502;-79
2022/09/08 01:13:06;;;;;;;2.20;1.80;;;18.50;99.90;;;;;;5081349;28;20617;-81
2022/09/08 01:15:35;;;;;;;2.07;1.87;;;18.50;99.90;;;;;;5074444;28;20638;-80
2022/09/08 01:18:04;;;;;;;1.77;1.67;;;18.40;99.90;;;;;;5066845;28;20622;-79
2022/09/08 01:20:40;;;;;;;1.93;1.80;;;18.40;99.90;;;;;;5079908;28;20619;-80
2022/09/08 01:23:31;;;;;;;2.33;1.87;;;18.40;99.90;;;;;;5071542;28;20629;-80
2022/09/08 01:26:12;;;;;;;1.70;1.60;;;18.30;99.90;;;;;;5073631;28;21178;-79
2022/09/08 01:28:46;;;;;;;1.97;1.73;;;18.30;99.90;;;;;;5074196;28;20629;-79
2022/09/08 01:31:14;;;;;;;2.10;2.00;;;18.30;99.90;;;;;;5075677;28;20626;-78
2022/09/08 01:33:42;;;;;;;1.80;1.57;;;18.30;99.90;;;;;;5087021;28;20628;-80
2022/09/08 01:36:13;;;;;;;2.63;2.30;;;18.30;99.90;;;;;;5072294;28;21354;-80
2022/09/08 01:38:41;;;;;;;6.50;1.80;;;18.30;99.90;;;;;;5067641;28;21278;-80
2022/09/08 01:41:10;;;;;;;1.63;1.53;;;18.30;99.90;;;;;;5075980;28;20624;-79
2022/09/08 01:43:37;;;;;;;1.77;1.67;;;18.40;99.90;;;;;;5068476;28;20637;-80
2022/09/08 01:46:06;;;;;;;1.50;1.40;;;18.40;99.90;;;;;;5067610;28;20671;-79
2022/09/08 01:48:35;;;;;;;1.80;1.70;;;18.40;99.90;;;;;;5073929;28;20721;-79
2022/09/08 01:51:05;;;;;;;2.13;1.93;;;18.40;99.90;;;;;;5083659;28;20625;-81
2022/09/08 01:53:33;;;;;;;5.03;2.10;;;18.40;99.90;;;;;;5070002;28;20625;-80
2022/09/08 01:56:01;;;;;;;2.67;2.47;;;18.40;99.90;;;;;;5083633;28;20710;-80
2022/09/08 01:58:29;;;;;;;1.23;1.13;;;18.40;99.90;;;;;;5082909;28;20626;-81
2022/09/08 02:00:57;;;;;;;1.70;1.57;;;18.40;99.90;;;;;;5067446;28;20609;-80
2022/09/08 02:03:26;;;;;;;1.40;1.30;;;18.40;99.90;;;;;;5086913;28;21203;-78
2022/09/08 02:05:53;;;;;;;1.57;1.33;;;18.40;99.90;;;;;;5071730;28;20625;-79
2022/09/08 02:08:20;;;;;;;2.03;0.93;;;18.40;99.90;;;;;;5066312;28;20675;-79
2022/09/08 02:10:54;;;;;;;1.50;1.40;;;18.50;99.90;;;;;;5068260;28;20719;-81
2022/09/08 02:13:21;;;;;;;1.30;1.20;;;18.50;99.90;;;;;;5087642;28;21004;-80
2022/09/08 02:15:49;;;;;;;1.37;1.27;;;18.50;99.90;;;;;;5076359;28;20752;-80
2022/09/08 02:18:16;;;;;;;1.93;1.47;;;18.50;99.90;;;;;;5070167;28;20628;-79
2022/09/08 02:20:44;;;;;;;1.27;1.10;;;18.50;99.90;;;;;;5071328;28;20682;-81
2022/09/08 02:23:12;;;;;;;1.07;0.97;;;18.40;99.90;;;;;;5089746;28;20682;-81
2022/09/08 02:25:41;;;;;;;1.67;1.57;;;18.40;99.90;;;;;;5083652;28;20631;-80
2022/09/08 02:28:08;;;;;;;0.80;0.80;;;18.30;99.90;;;;;;5080521;28;20629;-79
2022/09/08 02:30:36;;;;;;;1.27;1.00;;;18.40;99.90;;;;;;5078529;28;20655;-79
2022/09/08 02:33:03;;;;;;;1.00;0.97;;;18.30;99.90;;;;;;5074231;28;20635;-80
2022/09/08 02:35:31;;;;;;;1.70;1.00;;;18.40;99.90;;;;;;5070837;28;20620;-81
2022/09/08 02:38:01;;;;;;;1.43;1.20;;;18.30;99.90;;;;;;5069845;28;20645;-81
2022/09/08 02:40:28;;;;;;;1.13;1.07;;;18.20;99.90;;;;;;5071515;28;20632;-82
2022/09/08 02:42:56;;;;;;;1.60;1.27;;;18.30;99.90;;;;;;5084228;28;20671;-82
2022/09/08 02:45:23;;;;;;;1.27;1.00;;;18.30;99.90;;;;;;5075968;28;20688;-82
2022/09/08 02:47:51;;;;;;;2.40;0.70;;;18.40;99.90;;;;;;5075141;28;20743;-80
2022/09/08 02:50:19;;;;;;;1.23;0.83;;;18.30;99.90;;;;;;5079388;28;20733;-81
2022/09/08 02:52:47;;;;;;;1.40;1.20;;;18.20;99.90;;;;;;5072065;28;20668;-81
2022/09/08 02:55:16;;;;;;;0.90;0.80;;;18.20;99.90;;;;;;5075680;28;20988;-82
2022/09/08 02:57:43;;;;;;;1.17;1.07;;;18.10;99.90;;;;;;5049997;28;21058;-82
2022/09/08 03:00:12;;;;;;;1.03;0.93;;;18.10;99.90;;;;;;5065266;28;21257;-80
2022/09/08 03:02:39;;;;;;;1.17;0.67;;;18.10;99.90;;;;;;5071409;28;20660;-81
2022/09/08 03:05:06;;;;;;;1.43;1.20;;;18.20;99.90;;;;;;5090309;28;20636;-81
2022/09/08 03:07:33;;;;;;;1.13;1.03;;;18.10;99.90;;;;;;5087422;28;20628;-81
2022/09/08 03:09:59;;;;;;;0.80;0.80;;;18.10;99.90;;;;;;5088610;28;20737;-82
2022/09/08 03:12:28;;;;;;;0.80;0.80;;;18.00;99.90;;;;;;5081480;28;20628;-82
2022/09/08 03:14:55;;;;;;;1.30;1.03;;;18.00;99.90;;;;;;5085628;28;20614;-81
2022/09/08 03:17:21;;;;;;;0.87;0.67;;;18.00;99.90;;;;;;5076971;28;20616;-82
2022/09/08 03:19:48;;;;;;;1.07;0.87;;;18.00;99.90;;;;;;5077515;28;20637;-83
2022/09/08 03:22:15;;;;;;;0.50;0.50;;;18.00;99.90;;;;;;5079640;28;21206;-82
2022/09/08 03:24:42;;;;;;;0.90;0.70;;;18.00;99.90;;;;;;5072619;28;20621;-82
2022/09/08 03:27:09;;;;;;;0.63;0.63;;;18.00;99.90;;;;;;5088863;28;20666;-81
2022/09/08 03:29:37;;;;;;;1.10;0.80;;;18.00;99.90;;;;;;5088334;28;20660;-82
2022/09/08 03:32:04;;;;;;;0.67;0.67;;;18.00;99.90;;;;;;5083677;28;20712;-82
2022/09/08 03:34:31;;;;;;;0.50;0.43;;;17.90;99.90;;;;;;5077696;28;20632;-81
2022/09/08 03:36:57;;;;;;;0.60;0.60;;;17.90;99.90;;;;;;5071362;28;20635;-84
2022/09/08 03:39:24;;;;;;;0.90;0.50;;;17.80;99.90;;;;;;5088435;28;21047;-80
2022/09/08 03:41:51;;;;;;;1.60;0.97;;;17.90;99.90;;;;;;5084975;28;20635;-82
2022/09/08 03:44:18;;;;;;;1.00;0.60;;;17.90;99.90;;;;;;5080756;28;20631;-83
2022/09/08 03:46:46;;;;;;;0.60;0.60;;;17.80;99.90;;;;;;5072060;28;20624;-82
2022/09/08 03:49:13;;;;;;;0.60;0.50;;;17.90;99.90;;;;;;5080158;28;20629;-83
2022/09/08 03:51:40;;;;;;;1.20;0.70;;;17.80;99.90;;;;;;5075820;28;20632;-82
2022/09/08 03:56:51;;;;;;;0.60;0.50;;;17.90;99.90;;;;;;5074741;28;20622;-80
2022/09/08 03:59:18;;;;;;;0.73;0.40;;;17.70;99.90;;;;;;5070727;28;20623;-81
2022/09/08 04:01:46;;;;;;;1.80;0.77;;;17.80;99.90;;;;;;5069626;28;20620;-80
2022/09/08 04:04:14;;;;;;;0.73;0.73;;;17.70;99.90;;;;;;5082730;28;21048;-80
2022/09/08 04:06:40;;;;;;;0.40;0.40;;;17.60;99.90;;;;;;5076018;28;20732;-81
2022/09/08 04:09:07;;;;;;;0.70;0.70;;;17.60;99.90;;;;;;5049298;28;20740;-80
2022/09/08 04:11:35;;;;;;;0.60;0.60;;;17.60;99.90;;;;;;5078699;28;21017;-80
2022/09/08 04:14:02;;;;;;;0.87;0.50;;;17.60;99.90;;;;;;5069021;28;21056;-80
2022/09/08 04:16:29;;;;;;;0.73;0.50;;;17.60;99.90;;;;;;5071166;28;20618;-80
2022/09/08 04:18:58;;;;;;;0.77;0.70;;;17.60;99.90;;;;;;5068976;28;20713;-80
2022/09/08 04:21:25;;;;;;;0.80;0.80;;;17.50;99.90;;;;;;5080456;28;20653;-80
2022/09/08 04:23:51;;;;;;;0.70;0.50;;;17.60;99.90;;;;;;5084505;28;20625;-79
2022/09/08 04:26:18;;;;;;;0.53;0.53;;;17.50;99.90;;;;;;5088154;28;21249;-81
2022/09/08 04:28:46;;;;;;;0.53;0.40;;;17.50;99.90;;;;;;5072062;28;21186;-79
2022/09/08 04:31:15;;;;;;;0.60;0.60;;;17.40;99.90;;;;;;5079879;28;21256;-81
2022/09/08 04:33:42;;;;;;;0.77;0.60;;;17.40;99.90;;;;;;5088566;28;20971;-81
2022/09/08 04:36:13;;;;;;;0.70;0.70;;;17.30;99.90;;;;;;5085333;28;20626;-79
2022/09/08 04:38:41;;;;;;;0.57;0.57;;;17.30;99.90;;;;;;5068499;28;20648;-79
2022/09/08 04:41:10;;;;;;;0.50;0.50;;;17.20;99.90;;;;;;5069270;28;21469;-80
2022/09/08 04:43:37;;;;;;;2.20;0.43;;;17.20;99.90;;;;;;5082750;28;20636;-81
2022/09/08 04:46:06;;;;;;;0.47;0.47;;;17.10;99.90;;;;;;5068526;28;20635;-80
2022/09/08 04:48:33;;;;;;;0.57;0.50;;;17.10;99.90;;;;;;5067897;28;20621;-80
2022/09/08 04:51:01;;;;;;;0.40;0.30;;;17.10;99.90;;;;;;5080082;28;20696;-81
2022/09/08 04:53:31;;;;;;;0.70;0.60;;;17.10;99.90;;;;;;5085955;28;20620;-81
2022/09/08 04:55:58;;;;;;;0.70;0.70;;;17.10;99.90;;;;;;5074673;28;20628;-79
2022/09/08 04:58:25;;;;;;;0.50;0.50;;;17.20;99.90;;;;;;5072239;28;20728;-80
2022/09/08 05:00:52;;;;;;;0.57;0.37;;;17.20;99.90;;;;;;5069302;28;20640;-80
2022/09/08 05:03:19;;;;;;;0.63;0.63;;;17.20;99.90;;;;;;5082489;28;21274;-81
2022/09/08 05:05:45;;;;;;;4.73;1.30;;;17.20;99.90;;;;;;5075418;28;21215;-82
2022/09/08 05:08:12;;;;;;;0.50;0.50;;;17.10;99.90;;;;;;5067359;28;20629;-82
2022/09/08 05:10:40;;;;;;;0.60;0.60;;;17.10;99.90;;;;;;5070032;28;20827;-80
2022/09/08 05:13:07;;;;;;;0.70;0.70;;;17.10;99.90;;;;;;5073688;28;20629;-81
2022/09/08 05:15:34;;;;;;;0.77;0.67;;;17.00;99.90;;;;;;5069753;28;20622;-80
2022/09/08 05:18:00;;;;;;;0.50;0.50;;;17.00;99.90;;;;;;5067156;28;20624;-80
2022/09/08 05:20:27;;;;;;;0.40;0.27;;;17.10;99.90;;;;;;5078710;28;20629;-80
2022/09/08 05:22:54;;;;;;;0.60;0.43;;;17.10;99.90;;;;;;5072200;28;20618;-81
2022/09/08 05:25:21;;;;;;;0.53;0.47;;;17.00;99.90;;;;;;5086243;28;21190;-81
2022/09/08 05:27:50;;;;;;;0.50;0.50;;;17.00;99.90;;;;;;5075074;28;20628;-80
2022/09/08 05:30:17;;;;;;;1.27;0.60;;;17.00;99.90;;;;;;5075436;28;20668;-81
2022/09/08 05:32:44;;;;;;;1.00;0.50;;;17.10;99.90;;;;;;5084726;28;21288;-80
2022/09/08 05:35:10;;;;;;;0.50;0.50;;;17.00;99.90;;;;;;5077017;28;20617;-81
2022/09/08 05:37:37;;;;;;;1.03;0.40;;;17.10;99.90;;;;;;5065979;28;20629;-81
2022/09/08 05:40:05;;;;;;;0.80;0.77;;;17.00;99.90;;;;;;5067852;28;20665;-81
2022/09/08 05:42:31;;;;;;;0.50;0.50;;;17.10;99.90;;;;;;5057428;28;20710;-80
2022/09/08 05:44:59;;;;;;;0.60;0.60;;;17.00;99.90;;;;;;5061902;28;21182;-80
2022/09/08 05:47:26;;;;;;;0.97;0.80;;;17.00;99.90;;;;;;5067553;28;20618;-81
2022/09/08 05:49:53;;;;;;;0.57;0.57;;;17.00;99.90;;;;;;5067564;28;20621;-79
2022/09/08 05:52:20;;;;;;;1.53;0.60;;;17.00;99.90;;;;;;5071388;28;20628;-80
2022/09/08 05:54:47;;;;;;;0.57;0.50;;;17.00;99.90;;;;;;5070731;28;20618;-80
2022/09/08 05:57:14;;;;;;;5.33;0.70;;;17.00;99.90;;;;;;5070191;28;20635;-80
2022/09/08 05:59:42;;;;;;;0.50;0.40;;;16.90;99.90;;;;;;5071521;28;20651;-81
2022/09/08 06:02:10;;;;;;;0.50;0.50;;;17.00;99.90;;;;;;5071383;28;21205;-80
2022/09/08 06:04:37;;;;;;;0.73;0.60;;;17.00;99.90;;;;;;5071490;28;20617;-80
2022/09/08 06:07:04;;;;;;;0.60;0.60;;;17.00;99.90;;;;;;5070540;28;20668;-79
2022/09/08 06:09:31;;;;;;;0.80;0.80;;;17.00;99.90;;;;;;5070733;28;21044;-79
2022/09/08 06:11:58;;;;;;;1.60;0.73;;;17.00;99.90;;;;;;5071578;28;20665;-78
2022/09/08 06:14:25;;;;;;;0.60;0.30;;;17.00;99.90;;;;;;5071094;28;20632;-79
2022/09/08 06:16:52;;;;;;;0.70;0.50;;;16.90;99.90;;;;;;5070035;28;20624;-79
2022/09/08 06:19:20;;;;;;;0.60;0.60;;;16.90;99.90;;;;;;5071416;28;20659;-78
2022/09/08 06:21:47;;;;;;;1.10;1.03;;;16.80;99.90;;;;;;5071189;28;20621;-78
2022/09/08 06:24:14;;;;;;;0.93;0.40;;;16.80;99.90;;;;;;5070884;28;20623;-79
2022/09/08 06:26:57;;;;;;;0.67;0.50;;;16.60;99.90;;;;;;5069596;28;20621;-78
2022/09/08 06:29:45;;;;;;;0.50;0.50;;;16.50;99.90;;;;;;5070898;28;20626;-79
2022/09/08 06:32:23;;;;;;;0.50;0.30;;;16.60;99.90;;;;;;5070610;28;20669;-79
2022/09/08 06:34:55;;;;;;;0.60;0.60;;;16.60;99.90;;;;;;5070976;28;21331;-78
2022/09/08 06:37:31;;;;;;;0.50;0.50;;;16.50;99.90;;;;;;5069859;28;20617;-79
2022/09/08 06:40:04;;;;;;;0.40;0.30;;;16.50;99.90;;;;;;5070836;28;21114;-78
2022/09/08 06:42:38;;;;;;;0.50;0.40;;;16.40;99.90;;;;;;5060885;28;20626;-80
2022/09/08 06:45:10;;;;;;;0.63;0.63;;;16.40;99.90;;;;;;5065071;28;20614;-79
2022/09/08 06:47:43;;;;;;;0.70;0.30;;;16.30;99.90;;;;;;5070057;28;20917;-78
2022/09/08 06:50:13;;;;;;;1.00;0.30;;;16.40;99.90;;;;;;5070223;28;21280;-79
2022/09/08 06:52:49;;;;;;;0.57;0.40;;;16.40;99.90;;;;;;5070129;28;21194;-79
2022/09/08 06:55:24;;;;;;;0.77;0.57;;;16.50;99.90;;;;;;5070243;28;20613;-80
2022/09/08 06:58:06;;;;;;;0.77;0.50;;;16.50;99.90;;;;;;5070253;28;21235;-80
2022/09/08 07:00:40;;;;;;;0.40;0.30;;;16.60;99.90;;;;;;5070036;28;20614;-79
2022/09/08 07:03:16;;;;;;;1.03;0.60;;;16.50;99.90;;;;;;5068830;28;20625;-80
2022/09/08 07:05:58;;;;;;;0.50;0.30;;;16.50;99.90;;;;;;5070480;28;20621;-80
2022/09/08 07:08:51;;;;;;;0.87;0.40;;;16.60;99.90;;;;;;5067460;28;20628;-80
2022/09/08 07:11:32;;;;;;;0.70;0.60;;;16.60;99.90;;;;;;5050281;28;20668;-80
2022/09/08 07:14:05;;;;;;;0.40;0.40;;;16.60;99.90;;;;;;5050512;28;20672;-80
2022/09/08 07:16:38;;;;;;;0.37;0.37;;;16.50;99.90;;;;;;5064911;28;20656;-80
2022/09/08 07:19:12;;;;;;;0.30;0.20;;;16.50;99.90;;;;;;5081052;28;20617;-81
2022/09/08 07:21:49;;;;;;;0.87;0.60;;;16.50;99.90;;;;;;5090185;28;20610;-80
2022/09/08 07:24:22;;;;;;;0.40;0.40;;;16.60;99.90;;;;;;5090483;28;20616;-80
2022/09/08 07:26:52;;;;;;;0.50;0.50;;;16.60;99.90;;;;;;5090007;28;21472;-80
2022/09/08 07:29:32;;;;;;;0.30;0.30;;;16.60;99.90;;;;;;5090168;28;21199;-80
2022/09/08 07:31:59;;;;;;;0.70;0.70;;;16.60;99.90;;;;;;5089918;28;20663;-82
2022/09/08 07:34:28;;;;;;;0.50;0.33;;;16.70;99.90;;;;;;5075657;28;20678;-81
2022/09/08 07:37:04;;;;;;;0.50;0.40;;;16.70;99.90;;;;;;5069902;28;20628;-80
2022/09/08 07:39:39;;;;;;;1.17;0.50;;;16.80;99.90;;;;;;5074600;28;20651;-80
2022/09/08 07:42:11;;;;;;;0.60;0.40;;;16.80;99.90;;;;;;5062983;28;20638;-81
2022/09/08 07:44:38;;;;;;;0.43;0.43;;;16.80;99.90;;;;;;5077449;28;20635;-81
2022/09/08 07:47:31;;;;;;;0.40;0.30;;;17.00;99.90;;;;;;5071603;28;20687;-82
2022/09/08 07:50:04;;;;;;;0.40;0.40;;;17.00;99.90;;;;;;5069890;28;20970;-82
2022/09/08 07:52:41;;;;;;;0.70;0.50;;;17.40;99.90;;;;;;5070029;28;20664;-80
2022/09/08 07:55:20;;;;;;;0.77;0.77;;;17.50;99.90;;;;;;5070059;28;20629;-81
2022/09/08 07:57:57;;;;;;;1.40;0.40;;;17.30;99.90;;;;;;5069153;28;20754;-81
2022/09/08 08:00:32;;;;;;;0.40;0.40;;;17.20;99.90;;;;;;5069295;28;21314;-79
2022/09/08 08:03:22;;;;;;;0.50;0.40;;;17.30;99.90;;;;;;5069356;28;20630;-81
2022/09/08 08:05:51;;;;;;;0.47;0.30;;;17.30;99.90;;;;;;5069111;28;20640;-81
2022/09/08 08:08:26;;;;;;;0.30;0.23;;;17.20;99.90;;;;;;5068457;28;21276;-80
2022/09/08 08:11:03;;;;;;;0.40;0.30;;;17.30;99.90;;;;;;5069533;28;20671;-80
2022/09/08 08:13:48;;;;;;;0.83;0.60;;;17.30;99.90;;;;;;5069110;28;21472;-81
2022/09/08 08:16:18;;;;;;;0.50;0.50;;;17.50;99.90;;;;;;5068894;28;20640;-79
2022/09/08 08:18:54;;;;;;;0.60;0.40;;;17.70;99.90;;;;;;5068817;28;20610;-82
2022/09/08 08:21:25;;;;;;;0.50;0.40;;;17.70;99.90;;;;;;5068523;28;20628;-80
2022/09/08 08:24:06;;;;;;;0.50;0.50;;;17.80;99.90;;;;;;5069043;28;20629;-79
2022/09/08 08:26:39;;;;;;;0.70;0.63;;;17.90;99.90;;;;;;5068564;28;20621;-80
2022/09/08 08:29:44;;;;;;;1.10;0.83;;;18.00;99.90;;;;;;5068113;28;20617;-81
2022/09/08 08:32:13;;;;;;;0.90;0.80;;;18.20;99.90;;;;;;5052284;28;20688;-80
2022/09/08 08:34:46;;;;;;;0.30;0.30;;;18.30;99.90;;;;;;5068853;28;20625;-81
2022/09/08 08:37:19;;;;;;;0.80;0.60;;;18.30;99.90;;;;;;5068679;28;20641;-79
2022/09/08 08:39:51;;;;;;;0.80;0.50;;;18.40;99.90;;;;;;5068167;28;20629;-80
2022/09/08 08:42:41;;;;;;;0.53;0.53;;;18.70;99.90;;;;;;5060692;28;20650;-80
2022/09/08 08:45:23;;;;;;;0.37;0.33;;;18.90;99.90;;;;;;5064205;28;20629;-79
2022/09/08 08:48:19;;;;;;;0.50;0.40;;;18.90;99.90;;;;;;5067848;28;21312;-81
2022/09/08 08:51:13;;;;;;;0.40;0.40;;;19.00;99.90;;;;;;5068823;28;20621;-80
2022/09/08 08:54:17;;;;;;;0.70;0.57;;;19.10;99.90;;;;;;5068547;28;20615;-80
2022/09/08 08:56:51;;;;;;;0.70;0.60;;;19.00;99.90;;;;;;5046172;28;20718;-82
2022/09/08 08:59:51;;;;;;;0.80;0.50;;;19.30;99.90;;;;;;5068588;28;20628;-82
2022/09/08 09:02:28;;;;;;;0.40;0.40;;;19.40;99.90;;;;;;5067094;28;20605;-81
2022/09/08 09:05:15;;;;;;;0.30;0.30;;;19.50;99.90;;;;;;5066788;28;20628;-81
2022/09/08 09:08:08;;;;;;;0.60;0.60;;;19.60;99.90;;;;;;5067174;28;20621;-81
2022/09/08 09:10:50;;;;;;;0.63;0.63;;;19.70;98.40;;;;;;5067922;28;20605;-80
2022/09/08 09:13:49;;;;;;;0.60;0.40;;;19.60;99.90;;;;;;5068524;28;20622;-81
2022/09/08 09:16:41;;;;;;;0.80;0.80;;;19.80;98.80;;;;;;5065404;28;20702;-80
2022/09/08 09:19:37;;;;;;;0.60;0.60;;;20.00;98.60;;;;;;5067217;28;20628;-80
2022/09/08 09:22:12;;;;;;;0.60;0.40;;;20.10;97.50;;;;;;5065508;28;21451;-80
2022/09/08 09:24:49;;;;;;;0.40;0.40;;;20.10;97.50;;;;;;5067475;28;20713;-80
2022/09/08 09:27:35;;;;;;;0.50;0.40;;;20.00;97.80;;;;;;5066846;28;21562;-81
2022/09/08 09:30:22;;;;;;;0.50;0.50;;;19.80;97.90;;;;;;5068086;28;20625;-79
2022/09/08 09:33:20;;;;;;;0.50;0.50;;;19.70;98.80;;;;;;5067660;28;20663;-79
2022/09/08 09:36:09;;;;;;;0.60;0.60;;;19.60;98.00;;;;;;5067910;28;20728;-80
2022/09/08 09:39:03;;;;;;;0.50;0.40;;;19.40;98.10;;;;;;5038261;28;20654;-80
2022/09/08 09:41:52;;;;;;;1.07;0.87;;;19.30;98.60;;;;;;5047603;28;20630;-81
2022/09/08 09:44:42;;;;;;;0.57;0.57;;;19.30;98.60;;;;;;5055686;28;20632;-81
2022/09/08 09:47:44;;;;;;;0.80;0.77;;;19.30;98.70;;;;;;5066765;28;21273;-80
2022/09/08 09:50:48;;;;;;;0.50;0.50;;;19.40;98.80;;;;;;5064366;28;20668;-81
2022/09/08 09:53:41;;;;;;;3.07;0.50;;;19.20;98.50;;;;;;5067491;28;20667;-81
2022/09/08 09:56:42;;;;;;;0.50;0.50;;;19.20;98.40;;;;;;5067170;28;20640;-81
2022/09/08 09:59:39;;;;;;;0.50;0.30;;;19.30;98.30;;;;;;5044615;28;20752;-82
2022/09/08 10:02:45;;;;;;;0.50;0.50;;;19.10;98.00;;;;;;5029063;28;20630;-80
2022/09/08 10:05:47;;;;;;;0.40;0.40;;;19.30;98.50;;;;;;5047311;28;21335;-81
2022/09/08 10:08:37;;;;;;;0.50;0.47;;;19.40;97.70;;;;;;5033652;28;20725;-80
2022/09/08 10:11:27;;;;;;;0.60;0.60;;;19.50;96.70;;;;;;5047262;28;20725;-80
2022/09/08 10:14:34;;;;;;;2.00;0.60;;;19.60;97.20;;;;;;5046305;28;20633;-80
2022/09/08 10:17:27;;;;;;;0.43;0.37;;;19.70;95.60;;;;;;5044773;28;20638;-80
2022/09/08 10:20:28;;;;;;;0.50;0.50;;;19.80;95.70;;;;;;5046766;28;20956;-80
2022/09/08 10:23:26;;;;;;;0.60;0.53;;;19.70;94.50;;;;;;5047171;28;20622;-80
2022/09/08 10:26:23;;;;;;;0.70;0.70;;;19.90;95.90;;;;;;5045270;28;20692;-80
2022/09/08 10:29:22;;;;;;;1.07;0.77;;;19.80;95.40;;;;;;5047271;28;20622;-79
2022/09/08 10:32:25;;;;;;;0.60;0.50;;;19.80;94.50;;;;;;5046797;28;21575;-81
2022/09/08 10:35:35;;;;;;;0.60;0.40;;;19.60;94.30;;;;;;5050678;28;21202;-79
2022/09/08 10:38:20;;;;;;;0.57;0.57;;;19.50;94.70;;;;;;5008186;28;20650;-80
2022/09/08 10:41:05;;;;;;;0.60;0.60;;;19.40;94.80;;;;;;5068854;28;20626;-80
2022/09/08 10:44:09;;;;;;;0.53;0.53;;;19.40;95.80;;;;;;5055037;28;20630;-80
2022/09/08 10:47:08;;;;;;;1.60;0.60;;;19.50;94.50;;;;;;5069290;28;20632;-80
2022/09/08 10:50:03;;;;;;;1.27;0.53;;;19.50;94.60;;;;;;5041377;28;21228;-79
2022/09/08 10:52:48;;;;;;;0.60;0.60;;;19.50;95.20;;;;;;5069356;28;21343;-80
2022/09/08 10:55:40;;;;;;;0.40;0.40;;;19.70;94.90;;;;;;5070493;28;20606;-81
2022/09/08 10:58:47;;;;;;;0.40;0.40;;;19.60;93.70;;;;;;5070265;28;20617;-82
2022/09/08 11:01:42;;;;;;;0.40;0.40;;;19.50;94.00;;;;;;5060610;28;20633;-81
2022/09/08 11:04:49;;;;;;;0.70;0.60;;;19.50;92.50;;;;;;5070770;28;20609;-80
2022/09/08 11:07:39;;;;;;;0.50;0.50;;;19.30;93.10;;;;;;5069903;28;20625;-81
2022/09/08 11:10:21;;;;;;;0.40;0.40;;;19.40;93.50;;;;;;5070528;28;21069;-80
2022/09/08 11:13:00;;;;;;;0.53;0.53;;;19.50;93.60;;;;;;5069955;28;20668;-80
2022/09/08 11:16:02;;;;;;;0.57;0.57;;;19.60;94.20;;;;;;5063885;28;20628;-81
2022/09/08 11:18:37;;;;;;;0.97;0.60;;;19.80;93.40;;;;;;5046042;28;20642;-80
2022/09/08 11:21:08;;;;;;;0.90;0.73;;;19.70;92.20;;;;;;5049647;28;20621;-81
2022/09/08 11:23:49;;;;;;;0.57;0.40;;;19.70;92.40;;;;;;5050212;28;20638;-81
2022/09/08 11:26:41;;;;;;;0.37;0.37;;;19.80;92.10;;;;;;5049600;28;20664;-81
2022/09/08 11:29:10;;;;;;;0.70;0.70;;;19.80;92.40;;;;;;5050002;28;20625;-81
2022/09/08 11:31:51;;;;;;;0.53;0.53;;;19.90;92.80;;;;;;5050133;28;20785;-82
2022/09/08 11:34:31;;;;;;;0.50;0.40;;;20.20;92.30;;;;;;5049554;28;20634;-81
2022/09/08 11:37:36;;;;;;;2.50;0.60;;;20.50;92.10;;;;;;5059465;28;20624;-81
2022/09/08 11:40:25;;;;;;;0.63;0.30;;;20.60;91.30;;;;;;5070147;28;20633;-81
2022/09/08 11:43:11;;;;;;;0.40;0.30;;;20.50;91.20;;;;;;5056009;28;20614;-80
2022/09/08 11:45:52;;;;;;;0.90;0.60;;;20.50;90.40;;;;;;5069505;28;20625;-79
2022/09/08 11:48:37;;;;;;;0.43;0.43;;;20.60;88.90;;;;;;5069011;28;20728;-81
2022/09/08 11:51:19;;;;;;;0.60;0.60;;;20.80;88.20;;;;;;5069799;28;20709;-81
2022/09/08 11:54:08;;;;;;;0.57;0.57;;;20.90;89.10;;;;;;5069289;28;20728;-80
2022/09/08 11:56:58;;;;;;;0.50;0.40;;;21.00;90.00;;;;;;5068975;28;20632;-82
2022/09/08 11:59:42;;;;;;;1.37;0.67;;;20.90;90.20;;;;;;5059886;28;20634;-81
2022/09/08 12:02:24;;;;;;;0.67;0.67;;;20.60;91.30;;;;;;5070016;28;20618;-81
2022/09/08 12:05:04;;;;;;;0.77;0.60;;;20.40;91.40;;;;;;5068954;28;20621;-80
2022/09/08 12:08:03;;;;;;;1.53;0.70;;;20.30;91.50;;;;;;5068505;28;20621;-81
2022/09/08 12:10:48;;;;;;;0.43;0.40;;;20.00;91.40;;;;;;5069309;28;20625;-81
2022/09/08 12:13:23;;;;;;;0.40;0.30;;;20.00;92.60;;;;;;5068859;28;20668;-81
2022/09/08 12:16:23;;;;;;;0.40;0.40;;;19.90;92.60;;;;;;5068912;28;20633;-81
2022/09/08 12:19:23;;;;;;;1.03;0.53;;;20.00;93.50;;;;;;5069314;28;20612;-80
2022/09/08 12:22:07;;;;;;;0.53;0.53;;;19.90;93.40;;;;;;5069280;28;20746;-81
2022/09/08 12:24:48;;;;;;;0.40;0.40;;;20.00;94.10;;;;;;5068016;28;20696;-82
2022/09/08 12:27:26;;;;;;;0.47;0.47;;;19.90;93.60;;;;;;5068935;28;20653;-80
2022/09/08 12:30:05;;;;;;;0.50;0.50;;;20.00;93.90;;;;;;5068122;28;20613;-80
2022/09/08 12:32:51;;;;;;;1.27;1.17;;;19.80;94.00;;;;;;5069316;28;20664;-81
2022/09/08 12:35:23;;;;;;;0.73;0.50;;;19.90;95.50;;;;;;5068430;28;20613;-82
2022/09/08 12:37:58;;;;;;;0.60;0.47;;;19.90;95.30;;;;;;5068148;28;20644;-80
2022/09/08 12:40:52;;;;;;;0.70;0.70;;;20.10;95.60;;;;;;5069556;28;20628;-80
2022/09/08 12:43:21;;;;;;;0.93;0.83;;;20.00;95.10;;;;;;5052077;28;21524;-80
2022/09/08 12:46:15;;;;;;;0.77;0.77;;;20.20;94.50;;;;;;5068876;28;20620;-82
2022/09/08 12:48:53;;;;;;;0.70;0.70;;;20.50;93.80;;;;;;5066525;28;20622;-81
2022/09/08 12:51:26;;;;;;;0.73;0.73;;;20.80;92.50;;;;;;5068618;28;21302;-82
2022/09/08 12:54:14;;;;;;;0.40;0.40;;;20.90;93.20;;;;;;5068676;28;20764;-80
2022/09/08 12:57:04;;;;;;;0.90;0.50;;;21.00;92.70;;;;;;5067720;28;21359;-82
2022/09/08 12:59:43;;;;;;;0.60;0.60;;;21.00;92.30;;;;;;5062055;28;20614;-80
2022/09/08 13:02:30;;;;;;;0.60;0.60;;;21.00;91.80;;;;;;5068260;28;20624;-81
2022/09/08 13:05:07;;;;;;;0.50;0.50;;;20.90;92.00;;;;;;5068455;28;20610;-81
2022/09/08 13:07:39;;;;;;;0.57;0.57;;;20.90;90.60;;;;;;5067812;28;20635;-80
2022/09/08 13:10:18;;;;;;;0.50;0.50;;;20.80;89.30;;;;;;5068089;28;20653;-81
2022/09/08 13:13:04;;;;;;;0.67;0.50;;;20.90;89.90;;;;;;5068115;28;20663;-80
2022/09/08 13:15:34;;;;;;;0.70;0.53;;;21.00;88.10;;;;;;5067932;28;20630;-81
2022/09/08 13:18:21;;;;;;;1.47;1.37;;;21.10;90.60;;;;;;5067757;28;20655;-80
2022/09/08 13:20:52;;;;;;;1.10;0.70;;;21.50;86.90;;;;;;5066613;28;20634;-80
2022/09/08 13:23:31;;;;;;;1.23;0.50;;;22.40;83.20;;;;;;5068674;28;20609;-79
2022/09/08 13:26:09;;;;;;;0.57;0.40;;;22.80;81.40;;;;;;5068314;28;20625;-81
2022/09/08 13:29:03;;;;;;;0.50;0.50;;;23.10;79.60;;;;;;5067625;28;20637;-80
2022/09/08 13:31:39;;;;;;;0.90;0.90;;;23.60;77.80;;;;;;5068328;28;20638;-80
2022/09/08 13:34:20;;;;;;;0.60;0.50;;;23.50;77.40;;;;;;5068027;28;20664;-80
2022/09/08 13:37:07;;;;;;;0.50;0.50;;;23.90;81.20;;;;;;5067190;28;20728;-79
2022/09/08 13:39:56;;;;;;;0.50;0.47;;;25.00;73.50;;;;;;5067073;28;20920;-81
2022/09/08 13:42:48;;;;;;;1.43;0.67;;;26.70;70.10;;;;;;5059297;28;20633;-81